Time;durP1;ratioP1;P1;durP2;ratioP2;P2;SDS_P1;SDS_P2;PMS_P1;PMS_P2;Temp;Humidity;BMP_temperature;BMP_pressure;BME280_temperature;BME280_humidity;BME280_pressure;Samples;Min_cycle;Max_cycle;Signal;HPM_P1;HPM_P2
2021/04/20 00:01:36;;;;;;;10.70;1.17;;;;;;;9.18;81.31;101207.34;5053557;28;20474;-71
2021/04/20 00:04:03;;;;;;;5.27;1.43;;;;;;;9.14;81.29;101204.38;5053622;28;20486;-71
2021/04/20 00:06:29;;;;;;;0.60;0.50;;;;;;;9.17;81.14;101198.44;5053758;28;20430;-71
2021/04/20 00:08:55;;;;;;;0.60;0.60;;;;;;;9.15;81.12;101188.97;5053777;28;20442;-71
2021/04/20 00:11:20;;;;;;;0.67;0.67;;;;;;;9.08;80.87;101191.97;5053453;28;20477;-71
2021/04/20 00:13:47;;;;;;;0.80;0.60;;;;;;;9.10;79.52;101197.91;5053602;28;20460;-71
2021/04/20 00:16:13;;;;;;;1.43;0.60;;;;;;;9.09;79.86;101194.41;5053564;28;20472;-71
2021/04/20 00:18:39;;;;;;;1.63;0.57;;;;;;;9.09;80.25;101197.09;5057301;28;20419;-67
2021/04/20 00:21:05;;;;;;;1.40;1.30;;;;;;;9.08;80.37;101190.09;5055843;28;20819;-71
2021/04/20 00:23:31;;;;;;;0.80;0.50;;;;;;;9.07;79.70;101193.88;5053244;28;20565;-71
2021/04/20 00:25:57;;;;;;;4.90;0.93;;;;;;;9.05;79.70;101184.41;5052928;28;20446;-71
2021/04/20 00:28:24;;;;;;;0.90;0.70;;;;;;;9.04;80.81;101191.72;5053501;28;20864;-71
2021/04/20 00:30:51;;;;;;;0.93;0.57;;;;;;;9.07;81.48;101199.28;5053469;28;20485;-71
2021/04/20 00:33:18;;;;;;;0.87;0.87;;;;;;;9.07;82.09;101201.16;5053399;28;20438;-73
2021/04/20 00:35:44;;;;;;;1.10;0.63;;;;;;;9.11;82.35;101194.13;5053438;28;20439;-72
2021/04/20 00:38:11;;;;;;;1.23;0.70;;;;;;;9.12;82.69;101190.34;5053152;28;20442;-72
2021/04/20 00:40:37;;;;;;;0.50;0.40;;;;;;;9.20;82.42;101194.34;5052997;28;20535;-71
2021/04/20 00:43:04;;;;;;;1.80;1.10;;;;;;;9.24;82.21;101184.59;5053029;28;20482;-72
2021/04/20 00:45:33;;;;;;;4.30;1.13;;;;;;;9.27;82.84;101192.97;5053057;28;20442;-71
2021/04/20 00:48:00;;;;;;;0.97;0.90;;;;;;;9.25;82.32;101184.34;5054407;28;20441;-72
2021/04/20 00:50:30;;;;;;;0.40;0.30;;;;;;;9.25;82.40;101195.16;5052598;28;20959;-73
2021/04/20 00:52:55;;;;;;;1.23;0.87;;;;;;;9.23;82.32;101196.50;5053057;28;20439;-73
2021/04/20 00:55:21;;;;;;;0.80;0.80;;;;;;;9.12;81.31;101195.75;5052667;28;20449;-72
2021/04/20 00:57:48;;;;;;;0.60;0.60;;;;;;;9.07;81.81;101195.75;5052628;28;21009;-72
2021/04/20 01:00:16;;;;;;;1.83;1.67;;;;;;;9.05;82.34;101196.03;5052845;28;20442;-73
2021/04/20 01:02:42;;;;;;;1.47;0.43;;;;;;;9.09;81.68;101185.50;5052803;28;21140;-72
2021/04/20 01:05:12;;;;;;;0.50;0.43;;;;;;;9.07;80.75;101193.03;5052626;28;21120;-72
2021/04/20 01:07:39;;;;;;;1.47;0.93;;;;;;;9.05;80.95;101190.63;5052805;28;20499;-73
2021/04/20 01:10:06;;;;;;;0.70;0.57;;;;;;;9.01;81.59;101184.16;5052523;28;20947;-72
2021/04/20 01:12:33;;;;;;;10.90;3.00;;;;;;;9.00;81.71;101185.25;5052821;28;20450;-73
2021/04/20 01:14:59;;;;;;;2.03;0.97;;;;;;;9.01;81.55;101173.34;5052781;28;20445;-72
2021/04/20 01:17:25;;;;;;;1.10;0.63;;;;;;;8.99;81.42;101177.44;5052785;28;20450;-72
2021/04/20 01:19:54;;;;;;;1.10;1.00;;;;;;;9.02;82.18;101171.44;5052711;28;20443;-72
2021/04/20 01:22:22;;;;;;;0.90;0.67;;;;;;;9.04;83.02;101174.69;5052581;28;20468;-73
2021/04/20 01:24:48;;;;;;;0.83;0.77;;;;;;;9.03;83.36;101168.50;5052780;28;20449;-72
2021/04/20 01:27:15;;;;;;;0.60;0.50;;;;;;;9.06;83.84;101169.81;5052794;28;20446;-72
2021/04/20 01:29:41;;;;;;;2.10;0.90;;;;;;;9.06;84.00;101159.00;5052869;28;20438;-72
2021/04/20 01:32:07;;;;;;;1.03;0.93;;;;;;;9.06;84.09;101165.22;5052566;28;20470;-72
2021/04/20 01:34:33;;;;;;;2.53;2.40;;;;;;;9.06;84.37;101167.91;5052678;28;20465;-69
2021/04/20 01:37:00;;;;;;;2.73;1.07;;;;;;;9.01;85.01;101170.66;5052624;28;20449;-73
2021/04/20 01:39:26;;;;;;;2.27;1.40;;;;;;;9.01;85.00;101157.13;5055708;28;20446;-72
2021/04/20 01:41:53;;;;;;;2.03;1.93;;;;;;;8.94;85.80;101158.50;5056132;28;20535;-72
2021/04/20 01:44:20;;;;;;;0.93;0.73;;;;;;;8.94;85.86;101156.63;5056063;28;20486;-72
2021/04/20 01:46:45;;;;;;;0.93;0.40;;;;;;;8.94;85.53;101158.50;5056123;28;20442;-71
2021/04/20 01:49:11;;;;;;;2.20;1.47;;;;;;;8.93;84.96;101156.91;5056064;28;20861;-71
2021/04/20 01:51:38;;;;;;;0.93;0.70;;;;;;;8.87;85.16;101156.13;5055900;28;21006;-72
2021/04/20 01:54:04;;;;;;;0.93;0.60;;;;;;;8.78;84.88;101161.28;5056010;28;20442;-71
2021/04/20 01:56:32;;;;;;;1.57;1.20;;;;;;;8.70;83.72;101159.13;5055912;28;20442;-71
2021/04/20 01:59:00;;;;;;;1.10;0.67;;;;;;;8.58;82.45;101164.00;5055906;28;20445;-71
2021/04/20 02:01:28;;;;;;;1.43;1.33;;;;;;;8.44;81.92;101160.25;5055439;28;20523;-71
2021/04/20 02:03:54;;;;;;;0.70;0.50;;;;;;;8.26;83.03;101165.09;5055726;28;20481;-71
2021/04/20 02:06:23;;;;;;;2.50;0.77;;;;;;;8.13;84.78;101159.44;5055637;28;20472;-71
2021/04/20 02:08:49;;;;;;;0.70;0.70;;;;;;;8.07;84.04;101172.94;5061514;28;20446;-72
2021/04/20 02:11:18;;;;;;;3.13;1.03;;;;;;;7.97;84.19;101161.31;5055528;28;20482;-72
2021/04/20 02:13:46;;;;;;;1.07;0.90;;;;;;;7.90;85.09;101161.59;5055625;28;20491;-72
2021/04/20 02:16:13;;;;;;;0.73;0.60;;;;;;;7.79;86.92;101165.34;5055522;28;20449;-71
2021/04/20 02:18:41;;;;;;;1.33;1.23;;;;;;;7.70;87.82;101172.34;5055168;28;20462;-72
2021/04/20 02:21:08;;;;;;;2.60;1.90;;;;;;;7.67;88.54;101175.59;5055124;28;21040;-71
2021/04/20 02:23:36;;;;;;;0.50;0.40;;;;;;;7.51;90.13;101174.75;5055321;28;20488;-72
2021/04/20 02:26:03;;;;;;;13.47;1.37;;;;;;;7.59;89.91;101168.84;5055139;28;21024;-71
2021/04/20 02:28:31;;;;;;;1.37;0.93;;;;;;;7.55;90.25;101162.34;5055381;28;20457;-72
2021/04/20 02:31:00;;;;;;;0.70;0.63;;;;;;;7.49;90.54;101158.84;5055235;28;20469;-71
2021/04/20 02:33:27;;;;;;;1.03;0.60;;;;;;;7.41;91.38;101164.75;5055295;28;20438;-72
2021/04/20 02:35:56;;;;;;;0.50;0.50;;;;;;;7.24;92.71;101158.75;5055191;28;20441;-71
2021/04/20 02:38:22;;;;;;;0.40;0.30;;;;;;;7.29;91.80;101159.59;5055175;28;20449;-71
2021/04/20 02:40:52;;;;;;;0.73;0.60;;;;;;;7.13;92.98;101166.00;5055036;28;20508;-72
2021/04/20 02:43:18;;;;;;;1.40;1.03;;;;;;;7.14;93.27;101158.75;5055036;28;20481;-71
2021/04/20 02:45:45;;;;;;;1.17;0.67;;;;;;;7.21;92.38;101157.41;5054729;28;20446;-71
2021/04/20 02:48:11;;;;;;;1.50;0.70;;;;;;;7.19;92.71;101148.78;5055005;28;20449;-71
2021/04/20 02:50:38;;;;;;;0.40;0.30;;;;;;;7.00;92.65;101156.53;5053529;28;20808;-71
2021/04/20 02:53:04;;;;;;;3.60;1.60;;;;;;;7.03;91.44;101150.59;5054889;28;20507;-71
2021/04/20 02:55:31;;;;;;;0.83;0.73;;;;;;;7.03;90.55;101145.22;5054862;28;20438;-71
2021/04/20 02:57:58;;;;;;;0.87;0.70;;;;;;;7.00;89.73;101153.03;5055071;28;20442;-71
2021/04/20 03:00:26;;;;;;;1.60;1.03;;;;;;;6.93;90.11;101147.06;5054696;28;20453;-71
2021/04/20 03:02:54;;;;;;;0.50;0.43;;;;;;;6.76;92.08;101144.56;5054597;28;20536;-71
2021/04/20 03:05:23;;;;;;;0.70;0.60;;;;;;;6.67;92.04;101141.53;5054648;28;20450;-71
2021/04/20 03:07:50;;;;;;;3.47;1.10;;;;;;;6.70;90.79;101143.72;5054545;28;20480;-71
2021/04/20 03:10:18;;;;;;;1.27;0.90;;;;;;;6.69;90.53;101144.00;5054372;28;20442;-70
2021/04/20 03:12:46;;;;;;;0.57;0.50;;;;;;;6.46;93.31;101145.19;5054534;28;20481;-71
2021/04/20 03:15:14;;;;;;;0.87;0.57;;;;;;;6.43;94.01;101148.41;5054463;28;20449;-71
2021/04/20 03:17:41;;;;;;;0.83;0.70;;;;;;;6.39;94.67;101141.94;5054324;28;20453;-71
2021/04/20 03:20:08;;;;;;;1.70;0.93;;;;;;;6.49;94.01;101141.97;5054457;28;20450;-71
2021/04/20 03:22:34;;;;;;;0.70;0.57;;;;;;;6.49;94.55;101133.91;5054513;28;20438;-71
2021/04/20 03:25:23;;;;;;;1.17;0.60;;;;;;;6.55;93.89;101138.25;5053917;28;20939;-70
2021/04/20 03:27:51;;;;;;;0.63;0.63;;;;;;;6.49;94.54;101129.34;5054146;28;20784;-71
2021/04/20 03:30:18;;;;;;;1.43;0.60;;;;;;;6.55;94.18;101125.63;5054126;28;20435;-70
2021/04/20 03:32:51;;;;;;;0.80;0.70;;;;;;;6.53;94.09;101125.06;5054040;28;21008;-70
2021/04/20 03:35:24;;;;;;;0.50;0.50;;;;;;;6.48;93.98;101116.97;5054148;28;20434;-70
2021/04/20 03:37:56;;;;;;;1.23;1.10;;;;;;;6.43;94.03;101121.50;5054065;28;20481;-70
2021/04/20 03:40:26;;;;;;;0.50;0.40;;;;;;;6.34;94.84;101115.00;5053704;28;20431;-71
2021/04/20 03:42:55;;;;;;;0.80;0.47;;;;;;;6.32;94.25;101116.03;5053814;28;20505;-71
2021/04/20 03:45:25;;;;;;;0.70;0.50;;;;;;;6.18;94.72;101119.44;5053806;28;20442;-71
2021/04/20 03:47:56;;;;;;;0.70;0.50;;;;;;;6.24;94.27;101115.72;5053760;28;20449;-71
2021/04/20 03:50:26;;;;;;;1.50;0.50;;;;;;;6.15;94.25;101112.69;5053541;28;20447;-71
2021/04/20 03:52:55;;;;;;;1.10;0.87;;;;;;;6.12;93.58;101123.19;5053870;28;20446;-73
2021/04/20 03:55:25;;;;;;;1.20;0.70;;;;;;;6.06;93.04;101122.31;5053466;28;20461;-72
2021/04/20 03:57:54;;;;;;;0.90;0.90;;;;;;;5.98;92.72;101122.81;5057898;28;20406;-72
2021/04/20 04:00:21;;;;;;;1.60;1.50;;;;;;;5.96;91.86;101120.34;5055277;28;20446;-72
2021/04/20 04:02:48;;;;;;;0.50;0.40;;;;;;;5.88;92.20;101118.09;5053476;28;20442;-71
2021/04/20 04:05:17;;;;;;;1.77;0.73;;;;;;;5.80;94.46;101119.41;5053573;28;20461;-71
2021/04/20 04:07:46;;;;;;;0.70;0.70;;;;;;;5.89;94.97;101122.44;5053477;28;20478;-72
2021/04/20 04:10:14;;;;;;;0.60;0.57;;;;;;;5.96;94.95;101124.94;5053438;28;20449;-71
2021/04/20 04:12:44;;;;;;;1.00;0.63;;;;;;;5.96;94.89;101114.16;5053474;28;20431;-73
2021/04/20 04:15:11;;;;;;;1.03;0.93;;;;;;;5.96;95.13;101125.72;5053478;28;20426;-72
2021/04/20 04:17:42;;;;;;;5.73;1.50;;;;;;;5.95;95.55;101131.38;5053379;28;20503;-73
2021/04/20 04:20:11;;;;;;;0.70;0.70;;;;;;;5.90;95.78;101136.69;5053421;28;20484;-72
2021/04/20 04:22:45;;;;;;;1.43;1.33;;;;;;;5.89;96.12;101133.19;5053259;28;20465;-72
2021/04/20 04:25:14;;;;;;;1.43;0.63;;;;;;;5.82;96.73;101129.91;5053372;28;20488;-72
2021/04/20 04:27:45;;;;;;;2.40;1.07;;;;;;;5.85;96.94;101134.78;5053298;28;20446;-71
2021/04/20 04:30:13;;;;;;;0.87;0.87;;;;;;;5.85;97.75;101142.03;5053261;28;20435;-72
2021/04/20 04:32:42;;;;;;;4.00;2.60;;;;;;;5.92;97.04;101140.75;5052965;28;20990;-72
2021/04/20 04:35:10;;;;;;;0.50;0.40;;;;;;;6.02;96.77;101145.41;5053023;28;20507;-72
2021/04/20 04:37:37;;;;;;;0.70;0.53;;;;;;;6.02;96.37;101137.34;5053143;28;20430;-72
2021/04/20 04:40:05;;;;;;;0.50;0.40;;;;;;;6.04;96.38;101141.41;5052443;28;20465;-72
2021/04/20 04:42:31;;;;;;;0.80;0.63;;;;;;;6.05;96.46;101142.22;5053023;28;20462;-72
2021/04/20 04:45:01;;;;;;;1.83;1.17;;;;;;;6.01;97.13;101144.59;5053070;28;20486;-72
2021/04/20 04:47:27;;;;;;;0.80;0.70;;;;;;;6.04;96.99;101143.28;5053416;28;20483;-72
2021/04/20 04:49:59;;;;;;;0.90;0.80;;;;;;;6.14;95.69;101150.63;5052712;28;20442;-72
2021/04/20 04:52:25;;;;;;;0.50;0.50;;;;;;;6.13;95.94;101149.81;5053016;28;20493;-72
2021/04/20 04:54:51;;;;;;;1.40;0.50;;;;;;;6.13;96.17;101152.50;5053033;28;20438;-72
2021/04/20 04:57:19;;;;;;;0.80;0.80;;;;;;;6.21;95.10;101146.66;5053249;28;20887;-72
2021/04/20 04:59:45;;;;;;;1.00;0.83;;;;;;;6.26;94.29;101156.63;5052536;28;20849;-71
2021/04/20 05:02:13;;;;;;;1.70;0.70;;;;;;;6.24;95.25;101151.53;5052817;28;20802;-72
2021/04/20 05:04:39;;;;;;;0.70;0.70;;;;;;;6.29;94.83;101151.56;5052649;28;20493;-72
2021/04/20 05:07:05;;;;;;;0.50;0.40;;;;;;;6.31;94.79;101154.78;5052562;28;21001;-72
2021/04/20 05:09:31;;;;;;;2.30;1.13;;;;;;;6.39;95.23;101153.50;5052826;28;20442;-72
2021/04/20 05:11:57;;;;;;;0.70;0.70;;;;;;;6.34;96.73;101158.03;5052634;28;20481;-71
2021/04/20 05:14:23;;;;;;;0.63;0.63;;;;;;;6.44;96.45;101150.03;5056051;28;20434;-72
2021/04/20 05:16:51;;;;;;;2.00;1.37;;;;;;;6.52;96.30;101155.72;5056704;28;20438;-72
2021/04/20 05:19:24;;;;;;;2.10;1.90;;;;;;;6.58;96.55;101153.88;5056712;28;20453;-72
2021/04/20 05:21:50;;;;;;;2.00;1.07;;;;;;;6.71;95.96;101158.78;5056654;28;20519;-72
2021/04/20 05:24:19;;;;;;;1.07;0.90;;;;;;;6.76;95.50;101149.94;5056442;28;20486;-73
2021/04/20 05:26:45;;;;;;;9.90;0.90;;;;;;;6.81;95.34;101158.03;5056525;28;20446;-73
2021/04/20 05:29:11;;;;;;;2.63;1.50;;;;;;;6.87;95.25;101156.19;5056713;28;20500;-73
2021/04/20 05:31:37;;;;;;;1.13;0.67;;;;;;;7.00;95.24;101161.91;5056407;28;20458;-73
2021/04/20 05:34:05;;;;;;;0.60;0.60;;;;;;;7.11;95.16;101162.75;5056161;28;20442;-73
2021/04/20 05:36:33;;;;;;;1.50;0.90;;;;;;;7.14;94.79;101164.94;5056360;28;20446;-72
2021/04/20 05:39:03;;;;;;;6.63;0.97;;;;;;;7.11;94.74;101160.06;5056280;28;20520;-72
2021/04/20 05:41:32;;;;;;;1.63;1.50;;;;;;;7.21;93.91;101159.28;5056531;28;20894;-72
2021/04/20 05:44:00;;;;;;;1.87;1.53;;;;;;;7.26;93.21;101160.13;5056224;28;20570;-72
2021/04/20 05:46:27;;;;;;;2.20;1.00;;;;;;;7.30;92.47;101163.09;5056534;28;20499;-71
2021/04/20 05:48:54;;;;;;;3.07;2.20;;;;;;;7.36;91.63;101169.31;5062233;28;20919;-72
2021/04/20 05:51:22;;;;;;;3.53;2.20;;;;;;;7.40;90.63;101170.41;5055981;28;20473;-72
2021/04/20 05:53:51;;;;;;;1.57;1.47;;;;;;;7.42;90.49;101169.06;5055896;28;20533;-72
2021/04/20 05:56:18;;;;;;;1.37;1.27;;;;;;;7.52;90.81;101161.00;5056048;28;20430;-72
2021/04/20 05:58:45;;;;;;;0.97;0.93;;;;;;;7.61;91.04;101166.66;5056000;28;20563;-71
2021/04/20 06:01:11;;;;;;;1.23;1.13;;;;;;;7.66;90.69;101161.31;5055842;28;20492;-71
2021/04/20 06:03:41;;;;;;;1.37;1.27;;;;;;;7.71;90.82;101163.22;5055885;28;20478;-72
2021/04/20 06:06:08;;;;;;;0.87;0.87;;;;;;;7.75;90.79;101162.41;5055838;28;20495;-71
2021/04/20 06:08:36;;;;;;;1.77;1.27;;;;;;;7.77;90.10;101164.81;5055379;28;20870;-73
2021/04/20 06:11:05;;;;;;;2.40;1.17;;;;;;;7.79;90.48;101163.50;5055364;28;20485;-71
2021/04/20 06:13:31;;;;;;;1.87;1.43;;;;;;;7.80;90.22;101162.41;5055701;28;20529;-72
2021/04/20 06:15:58;;;;;;;4.13;1.40;;;;;;;7.81;90.01;101165.91;5055612;28;20451;-73
2021/04/20 06:18:25;;;;;;;2.97;2.10;;;;;;;7.79;90.44;101163.50;5055653;28;20455;-72
2021/04/20 06:20:53;;;;;;;0.87;0.87;;;;;;;7.83;90.25;101161.88;5056013;28;20462;-69
2021/04/20 06:23:20;;;;;;;3.90;1.20;;;;;;;7.90;90.19;101160.78;5055523;28;20486;-71
2021/04/20 06:25:47;;;;;;;1.27;0.53;;;;;;;7.98;89.87;101161.06;5054960;28;21032;-70
2021/04/20 06:28:14;;;;;;;1.07;0.97;;;;;;;8.07;89.93;101158.66;5055334;28;20469;-73
2021/04/20 06:30:41;;;;;;;2.17;1.70;;;;;;;8.02;88.84;101161.34;5055291;28;20466;-73
2021/04/20 06:33:08;;;;;;;2.63;1.33;;;;;;;8.00;88.08;101153.50;5055696;28;20442;-73
2021/04/20 06:35:35;;;;;;;3.37;1.37;;;;;;;8.06;88.19;101154.34;5055252;28;20819;-73
2021/04/20 06:38:01;;;;;;;4.00;1.43;;;;;;;8.08;87.16;101158.38;5055032;28;21005;-75
2021/04/20 06:40:30;;;;;;;1.33;1.00;;;;;;;8.15;86.72;101160.00;5055129;28;20533;-73
2021/04/20 06:42:59;;;;;;;2.53;1.30;;;;;;;8.21;85.95;101159.72;5054728;28;20951;-72
2021/04/20 06:45:33;;;;;;;1.53;0.80;;;;;;;8.28;85.56;101157.56;5055149;28;20446;-72
2021/04/20 06:48:01;;;;;;;2.10;1.90;;;;;;;8.40;85.72;101169.97;5055117;28;20427;-72
2021/04/20 06:50:30;;;;;;;3.57;2.63;;;;;;;8.53;86.03;101159.44;5054879;28;20454;-69
2021/04/20 06:53:00;;;;;;;1.13;0.87;;;;;;;8.66;86.33;101160.75;5054893;28;20528;-71
2021/04/20 06:55:33;;;;;;;0.97;0.60;;;;;;;8.77;86.06;101165.06;5055037;28;20430;-73
2021/04/20 06:58:14;;;;;;;1.30;0.60;;;;;;;8.89;86.20;101156.63;5054681;28;20427;-73
2021/04/20 07:00:43;;;;;;;4.50;1.47;;;;;;;9.00;86.04;101165.53;5054793;28;20519;-73
2021/04/20 07:03:25;;;;;;;2.50;1.67;;;;;;;9.14;86.06;101165.75;5054739;28;20434;-73
2021/04/20 07:05:58;;;;;;;3.40;1.80;;;;;;;9.25;84.30;101157.31;5054470;28;20916;-73
2021/04/20 07:08:31;;;;;;;1.90;1.63;;;;;;;9.30;82.62;101160.00;5054441;28;20907;-72
2021/04/20 07:10:58;;;;;;;3.90;2.20;;;;;;;9.42;81.72;101154.22;5054396;28;20501;-72
2021/04/20 07:13:30;;;;;;;2.60;1.57;;;;;;;9.59;81.61;101156.56;5054310;28;20823;-72
2021/04/20 07:15:58;;;;;;;1.77;1.63;;;;;;;9.72;81.50;101157.84;5054270;28;20916;-73
2021/04/20 07:18:37;;;;;;;3.97;2.27;;;;;;;9.82;81.94;101155.88;5054223;28;20446;-73
2021/04/20 07:21:21;;;;;;;2.67;1.97;;;;;;;9.85;81.69;101155.31;5054057;28;20482;-73
2021/04/20 07:24:00;;;;;;;2.37;1.80;;;;;;;9.94;81.12;101152.00;5054172;28;21002;-73
2021/04/20 07:26:36;;;;;;;2.97;1.70;;;;;;;10.19;81.09;101146.38;5054045;28;20427;-72
2021/04/20 07:29:16;;;;;;;5.40;3.07;;;;;;;10.39;79.98;101152.72;5054267;28;20418;-73
2021/04/20 07:31:57;;;;;;;5.53;1.77;;;;;;;10.39;77.99;101145.41;5054177;28;20572;-73
2021/04/20 07:34:28;;;;;;;3.40;1.80;;;;;;;10.59;77.97;101141.69;5054430;28;20423;-69
2021/04/20 07:37:07;;;;;;;3.90;2.80;;;;;;;10.78;77.69;101142.56;5058890;28;20438;-71
2021/04/20 07:39:41;;;;;;;4.77;2.43;;;;;;;10.95;77.04;101139.38;5055908;28;20434;-72
2021/04/20 07:42:19;;;;;;;2.40;1.80;;;;;;;11.04;75.79;101137.66;5054187;28;20474;-72
2021/04/20 07:44:55;;;;;;;8.47;1.83;;;;;;;11.05;75.64;101131.13;5053636;28;20560;-71
2021/04/20 07:47:25;;;;;;;6.27;2.47;;;;;;;11.23;75.13;101134.97;5079119;22;20477;-69
2021/04/20 07:49:57;;;;;;;4.10;2.23;;;;;;;11.36;75.31;101130.72;5014048;28;20922;-68
2021/04/20 07:52:28;;;;;;;3.33;1.80;;;;;;;11.50;74.08;101123.47;5014217;28;20439;-70
2021/04/20 07:55:01;;;;;;;3.20;2.20;;;;;;;11.67;74.07;101130.28;5014351;28;20424;-69
2021/04/20 07:57:33;;;;;;;5.03;1.90;;;;;;;11.88;73.41;101134.31;5017970;28;20466;-70
2021/04/20 08:00:09;;;;;;;18.70;4.10;;;;;;;12.10;72.58;101128.25;5033782;28;20514;-71
2021/04/20 08:02:53;;;;;;;2.90;2.03;;;;;;;12.21;70.74;101126.97;5033748;28;20458;-70
2021/04/20 08:05:24;;;;;;;2.20;2.10;;;;;;;12.34;69.99;101126.19;5033744;28;20471;-70
2021/04/20 08:07:57;;;;;;;3.00;2.00;;;;;;;12.35;70.25;101127.00;5033601;28;20467;-71
2021/04/20 08:10:26;;;;;;;2.80;2.03;;;;;;;12.44;70.46;101121.66;5033733;28;20427;-70
2021/04/20 08:12:59;;;;;;;2.17;1.60;;;;;;;12.55;69.37;101125.81;5033570;28;20446;-69
2021/04/20 08:15:32;;;;;;;3.80;2.30;;;;;;;12.67;69.31;101125.34;5033614;28;20426;-70
2021/04/20 08:18:06;;;;;;;1.17;1.07;;;;;;;12.71;68.30;101126.34;5033200;28;20474;-71
2021/04/20 08:20:36;;;;;;;3.03;2.10;;;;;;;12.61;69.37;101116.44;5033221;28;20897;-70
2021/04/20 08:23:04;;;;;;;2.87;1.40;;;;;;;12.62;68.15;101121.59;5033108;28;20440;-70
2021/04/20 08:25:32;;;;;;;4.33;2.23;;;;;;;12.69;67.61;101115.75;5033451;28;20443;-70
2021/04/20 08:28:05;;;;;;;3.53;2.37;;;;;;;12.65;67.20;101119.38;5032917;28;20845;-71
2021/04/20 08:30:36;;;;;;;1.90;1.63;;;;;;;12.47;68.72;101112.94;5033295;28;20423;-70
2021/04/20 08:33:09;;;;;;;3.17;1.87;;;;;;;12.62;69.21;101121.59;5033296;28;20446;-68
2021/04/20 08:35:35;;;;;;;3.80;2.53;;;;;;;12.71;67.07;101110.84;5033027;28;20813;-68
2021/04/20 08:38:17;;;;;;;6.93;1.63;;;;;;;12.74;65.47;101110.22;5032905;28;21022;-67
2021/04/20 08:40:53;;;;;;;3.50;2.50;;;;;;;12.78;65.01;101108.50;5033211;28;20435;-68
2021/04/20 08:43:40;;;;;;;4.37;1.63;;;;;;;12.79;62.63;101110.13;5033472;28;20561;-69
2021/04/20 08:46:16;;;;;;;3.17;1.53;;;;;;;12.90;62.26;101112.63;5033445;28;20436;-66
2021/04/20 08:48:53;;;;;;;2.80;2.10;;;;;;;12.99;63.37;101110.81;5035288;28;20482;-69
2021/04/20 08:51:28;;;;;;;2.90;2.50;;;;;;;13.03;63.56;101109.91;5037492;28;20427;-69
2021/04/20 08:54:07;;;;;;;4.00;2.80;;;;;;;13.01;62.77;101106.66;5037119;28;20426;-68
2021/04/20 08:56:41;;;;;;;3.17;2.20;;;;;;;13.05;61.32;101107.66;5037197;28;20427;-70
2021/04/20 08:59:17;;;;;;;5.00;3.00;;;;;;;13.17;62.26;101104.44;5037242;28;20466;-68
2021/04/20 09:01:54;;;;;;;3.13;2.13;;;;;;;13.26;62.60;101099.91;5037894;28;20796;-68
2021/04/20 09:05:08;;;;;;;8.17;2.57;;;;;;;13.40;61.96;101109.94;5040894;28;20504;-69
2021/04/20 09:07:45;;;;;;;7.17;2.40;;;;;;;13.46;61.17;101109.53;5031843;28;20475;-69
2021/04/20 09:10:15;;;;;;;2.40;2.20;;;;;;;13.59;61.23;101099.69;5036882;28;20423;-69
2021/04/20 09:12:44;;;;;;;6.33;2.47;;;;;;;13.62;60.27;101105.31;5037287;28;20453;-69
2021/04/20 09:15:13;;;;;;;2.40;1.80;;;;;;;13.77;60.11;101103.38;5036941;28;20443;-68
2021/04/20 09:17:46;;;;;;;2.73;1.83;;;;;;;13.93;61.22;101104.59;5036733;28;20466;-69
2021/04/20 09:20:22;;;;;;;3.57;2.40;;;;;;;14.07;60.37;101104.50;5036934;28;20430;-69
2021/04/20 09:22:53;;;;;;;11.00;2.20;;;;;;;14.15;59.50;101101.03;5036748;28;20422;-69
2021/04/20 09:25:24;;;;;;;5.50;3.00;;;;;;;14.25;59.01;101106.22;5036663;28;20482;-68
2021/04/20 09:28:03;;;;;;;4.70;2.90;;;;;;;14.23;58.39;101103.00;5036644;28;20466;-69
2021/04/20 09:30:35;;;;;;;6.13;2.20;;;;;;;14.19;57.69;101102.03;5036665;28;20434;-69
2021/04/20 09:33:07;;;;;;;6.13;2.87;;;;;;;14.14;59.04;101111.13;5036665;28;20434;-69
2021/04/20 09:35:35;;;;;;;2.83;2.30;;;;;;;14.18;59.64;101105.88;5036826;28;20427;-69
2021/04/20 09:38:03;;;;;;;5.67;3.10;;;;;;;14.26;61.53;101107.84;5036065;28;20466;-65
2021/04/20 09:40:30;;;;;;;1.30;1.10;;;;;;;14.27;59.79;101097.75;5036429;28;20451;-68
2021/04/20 09:43:04;;;;;;;5.00;2.00;;;;;;;14.31;59.24;101098.72;5036255;28;20504;-68
2021/04/20 09:45:34;;;;;;;3.17;1.43;;;;;;;14.35;60.35;101105.16;5036066;28;20471;-68
2021/04/20 09:48:12;;;;;;;1.80;1.20;;;;;;;14.28;57.22;101107.50;5036031;28;20483;-68
2021/04/20 09:50:53;;;;;;;3.30;2.47;;;;;;;14.31;59.33;101101.44;5035935;28;20537;-70
2021/04/20 09:53:33;;;;;;;2.10;1.87;;;;;;;14.28;59.16;101112.97;5036173;28;20419;-68
2021/04/20 09:56:08;;;;;;;3.27;2.17;;;;;;;14.29;58.97;101096.28;5036186;28;20481;-68
2021/04/20 09:58:39;;;;;;;8.90;1.43;;;;;;;14.39;59.32;101101.50;5035530;28;20469;-70
2021/04/20 10:01:16;;;;;;;5.50;1.83;;;;;;;14.51;60.35;101111.00;5035246;28;20916;-69
2021/04/20 10:03:52;;;;;;;23.70;2.90;;;;;;;14.61;58.11;101102.56;5035712;28;20561;-70
2021/04/20 10:06:37;;;;;;;2.97;1.67;;;;;;;14.66;57.92;101107.09;5035595;28;20431;-69
2021/04/20 10:09:16;;;;;;;1.30;1.20;;;;;;;14.70;59.95;101099.84;5035191;28;20467;-69
2021/04/20 10:11:50;;;;;;;4.93;1.97;;;;;;;14.80;58.87;101094.13;5035102;28;20795;-70
2021/04/20 10:14:27;;;;;;;4.00;1.90;;;;;;;14.94;59.03;101094.00;5035339;28;20438;-68
2021/04/20 10:17:05;;;;;;;3.10;1.93;;;;;;;15.01;56.45;101089.69;5035724;28;20521;-69
2021/04/20 10:19:37;;;;;;;7.33;2.07;;;;;;;15.01;56.38;101091.63;5035570;28;20466;-69
2021/04/20 10:22:19;;;;;;;1.90;1.77;;;;;;;15.16;56.72;101085.69;5035360;28;20929;-68
2021/04/20 10:24:59;;;;;;;2.23;1.33;;;;;;;15.23;55.72;101091.47;5035385;28;20474;-68
2021/04/20 10:27:29;;;;;;;5.33;2.43;;;;;;;15.46;56.57;101096.78;5035419;28;20518;-69
2021/04/20 10:29:58;;;;;;;1.53;1.40;;;;;;;15.60;56.36;101087.31;5035250;28;20935;-70
2021/04/20 10:32:30;;;;;;;1.53;1.43;;;;;;;15.70;54.46;101090.84;5035257;28;20442;-69
2021/04/20 10:34:57;;;;;;;8.90;3.83;;;;;;;15.83;55.36;101100.81;5035327;28;20447;-69
2021/04/20 10:37:34;;;;;;;4.43;2.57;;;;;;;15.80;53.75;101091.31;5035394;28;20830;-69
2021/04/20 10:40:01;;;;;;;2.40;1.90;;;;;;;15.92;53.32;101090.66;5035425;28;20438;-68
2021/04/20 10:42:29;;;;;;;5.50;2.63;;;;;;;16.08;52.61;101080.03;5035194;28;20972;-69
2021/04/20 10:44:56;;;;;;;2.10;1.80;;;;;;;16.19;53.31;101078.53;5035202;28;20517;-67
2021/04/20 10:47:23;;;;;;;2.93;2.13;;;;;;;16.39;54.26;101077.81;5038074;28;20916;-70
2021/04/20 10:49:51;;;;;;;3.63;1.97;;;;;;;16.67;56.17;101082.03;5035436;28;20436;-70
2021/04/20 10:52:19;;;;;;;2.93;1.67;;;;;;;16.81;53.72;101077.94;5035185;28;20805;-70
2021/04/20 10:54:48;;;;;;;11.57;1.87;;;;;;;17.14;53.12;101085.50;5034879;28;20957;-70
2021/04/20 10:57:14;;;;;;;5.30;2.00;;;;;;;17.30;54.04;101075.53;5034987;28;20443;-70
2021/04/20 10:59:42;;;;;;;2.47;1.70;;;;;;;17.48;52.56;101081.66;5034998;28;20447;-71
2021/04/20 11:02:12;;;;;;;3.93;2.30;;;;;;;17.48;49.23;101072.63;5034915;28;20451;-69
2021/04/20 11:04:43;;;;;;;4.10;2.90;;;;;;;17.56;50.46;101075.31;5034533;28;20483;-70
2021/04/20 11:07:18;;;;;;;3.93;2.63;;;;;;;17.80;52.82;101060.94;5034479;28;20501;-70
2021/04/20 11:09:46;;;;;;;4.77;2.27;;;;;;;17.86;50.93;101073.28;5034277;28;20541;-70
2021/04/20 11:12:17;;;;;;;3.23;1.60;;;;;;;18.10;51.85;101064.31;5033995;28;20467;-70
2021/04/20 11:14:46;;;;;;;9.57;2.70;;;;;;;18.28;50.67;101062.19;5034734;28;20470;-71
2021/04/20 11:17:32;;;;;;;4.63;2.10;;;;;;;18.85;49.39;101055.78;5034620;28;20447;-71
2021/04/20 11:20:06;;;;;;;2.70;2.27;;;;;;;19.50;47.91;101054.91;5031842;28;20972;-71
2021/04/20 11:22:37;;;;;;;2.53;2.07;;;;;;;20.47;44.50;101053.53;5034522;28;20490;-71
2021/04/20 11:25:18;;;;;;;6.17;2.50;;;;;;;21.56;44.05;101052.78;5034539;28;20471;-71
2021/04/20 11:27:46;;;;;;;24.83;2.20;;;;;;;22.61;42.23;101057.00;5033993;28;21075;-71
2021/04/20 11:30:16;;;;;;;3.00;1.93;;;;;;;23.02;41.43;101043.41;5034470;28;20817;-72
2021/04/20 11:32:48;;;;;;;2.90;1.63;;;;;;;23.11;40.35;101046.72;5034616;28;20424;-71
2021/04/20 11:35:19;;;;;;;2.17;1.77;;;;;;;23.46;40.62;101054.63;5034503;28;20427;-71
2021/04/20 11:37:46;;;;;;;1.70;1.33;;;;;;;24.02;38.66;101047.34;5033925;28;20839;-71
2021/04/20 11:40:18;;;;;;;10.83;2.43;;;;;;;23.59;38.31;101042.13;5034241;28;20493;-70
2021/04/20 11:42:48;;;;;;;2.80;2.03;;;;;;;24.43;37.67;101045.31;5034243;28;20439;-71